createdAt,value
2022-12-03T00:01:54.986Z,-1.24
2022-12-03T00:04:27.969Z,-1.35
2022-12-03T00:06:54.492Z,-1.34
2022-12-03T00:09:20.947Z,-1.45
2022-12-03T00:11:47.573Z,-1.45
2022-12-03T00:14:14.053Z,-1.46
2022-12-03T00:16:40.824Z,-1.59
2022-12-03T00:19:09.472Z,-1.63
2022-12-03T00:21:37.696Z,-1.63
2022-12-03T00:24:04.377Z,-1.60
2022-12-03T00:26:32.624Z,-1.66
2022-12-03T00:28:59.151Z,-1.70
2022-12-03T00:31:25.844Z,-1.74
2022-12-03T00:33:54.461Z,-1.74
2022-12-03T00:36:21.021Z,-1.70
2022-12-03T00:38:47.566Z,-1.77
2022-12-03T00:41:14.224Z,-1.82
2022-12-03T00:43:40.697Z,-1.89
2022-12-03T00:46:07.296Z,-1.91
2022-12-03T00:48:33.999Z,-1.97
2022-12-03T00:51:00.685Z,-2.01
2022-12-03T00:53:27.357Z,-2.03
2022-12-03T00:55:53.983Z,-2.06
2022-12-03T00:58:20.459Z,-2.05
2022-12-03T01:00:50.384Z,-2.09
2022-12-03T01:03:22.798Z,-2.10
2022-12-03T01:05:49.246Z,-2.18
2022-12-03T01:08:15.843Z,-2.09
2022-12-03T01:10:50.969Z,-2.12
2022-12-03T01:13:17.526Z,-2.08
2022-12-03T01:15:44.067Z,-2.12
2022-12-03T01:18:10.957Z,-2.21
2022-12-03T01:20:38.606Z,-2.31
2022-12-03T01:23:07.351Z,-2.25
2022-12-03T01:25:34.033Z,-2.26
2022-12-03T01:28:00.646Z,-2.24
2022-12-03T01:30:27.229Z,-2.36
2022-12-03T01:33:00.230Z,-2.29
2022-12-03T01:35:26.697Z,-2.24
2022-12-03T01:37:53.194Z,-2.23
2022-12-03T01:40:23.504Z,-2.40
2022-12-03T01:42:50.058Z,-2.44
2022-12-03T01:45:23.779Z,-2.45
2022-12-03T01:47:52.096Z,-2.46
2022-12-03T01:50:23.302Z,-2.50
2022-12-03T01:52:50.178Z,-2.45
2022-12-03T01:55:21.348Z,-2.46
2022-12-03T01:57:51.941Z,-2.52
2022-12-03T02:05:54.710Z,-2.48
2022-12-03T02:08:37.716Z,-2.40
2022-12-03T02:11:29.441Z,-2.39
2022-12-03T02:14:01.853Z,-2.51
2022-12-03T02:16:32.577Z,-2.48
2022-12-03T02:19:01.080Z,-2.56
2022-12-03T02:21:48.539Z,-2.47
2022-12-03T02:24:29.977Z,-2.41
2022-12-03T02:26:56.662Z,-2.42
2022-12-03T02:29:23.178Z,-2.46
2022-12-03T02:31:49.778Z,-2.49
2022-12-03T02:34:45.657Z,-2.53
2022-12-03T02:37:28.876Z,-2.49
2022-12-03T02:40:01.577Z,-2.46
2022-12-03T02:42:37.824Z,-2.50
2022-12-03T02:45:24.423Z,-2.51
2022-12-03T02:48:05.572Z,-2.49
2022-12-03T02:50:41.395Z,-2.52
2022-12-03T02:53:12.917Z,-2.53
2022-12-03T02:55:42.242Z,-2.49
2022-12-03T02:58:10.196Z,-2.45
2022-12-03T03:00:37.652Z,-2.42
2022-12-03T03:03:06.741Z,-2.36
2022-12-03T03:05:36.600Z,-2.28
2022-12-03T03:08:03.728Z,-2.32
2022-12-03T03:10:31.573Z,-2.33
2022-12-03T03:13:00.173Z,-2.28
2022-12-03T03:15:26.721Z,-2.18
2022-12-03T03:17:53.474Z,-2.16
2022-12-03T03:20:20.237Z,-2.21
2022-12-03T03:22:46.840Z,-2.27
2022-12-03T03:25:16.855Z,-2.31
2022-12-03T03:27:46.427Z,-2.33
2022-12-03T03:30:15.394Z,-2.39
2022-12-03T03:32:42.815Z,-2.40
2022-12-03T03:35:10.905Z,-2.41
2022-12-03T03:37:38.245Z,-2.39
2022-12-03T03:40:05.378Z,-2.38
2022-12-03T03:42:38.495Z,-2.47
2022-12-03T03:45:07.067Z,-2.55
2022-12-03T03:47:37.670Z,-2.62
2022-12-03T03:50:05.515Z,-2.67
2022-12-03T03:52:32.482Z,-2.71
2022-12-03T03:54:59.208Z,-2.79
2022-12-03T03:57:28.481Z,-2.78
2022-12-03T03:59:55.085Z,-2.80
2022-12-03T04:02:24.622Z,-2.80
2022-12-03T04:05:02.001Z,-2.79
2022-12-03T04:07:29.791Z,-2.88
2022-12-03T04:09:56.294Z,-2.95
2022-12-03T04:12:41.316Z,-2.96
2022-12-03T04:15:08.446Z,-3.00
2022-12-03T04:17:34.950Z,-3.02
2022-12-03T04:20:08.101Z,-3.04
2022-12-03T04:22:40.332Z,-3.04
2022-12-03T04:25:29.518Z,-3.01
2022-12-03T04:28:14.565Z,-2.97
2022-12-03T04:30:41.344Z,-2.87
2022-12-03T04:33:26.254Z,-2.90
2022-12-03T04:35:53.164Z,-2.87
2022-12-03T04:38:19.764Z,-2.90
2022-12-03T04:41:05.776Z,-2.84
2022-12-03T04:43:34.792Z,-2.91
2022-12-03T04:46:02.403Z,-2.90
2022-12-03T04:48:29.656Z,-3.01
2022-12-03T04:50:56.550Z,-3.06
2022-12-03T04:53:23.395Z,-3.02
2022-12-03T04:55:49.980Z,-2.91
2022-12-03T04:58:18.508Z,-2.85
2022-12-03T05:00:45.008Z,-2.82
2022-12-03T05:03:13.269Z,-2.79
2022-12-03T05:05:39.724Z,-2.74
2022-12-03T05:08:06.630Z,-2.72
2022-12-03T05:10:41.835Z,-2.63
2022-12-03T05:13:08.294Z,-2.56
2022-12-03T05:15:34.780Z,-2.50
2022-12-03T05:18:01.615Z,-2.39
2022-12-03T05:20:45.851Z,-2.44
2022-12-03T05:23:23.930Z,-2.34
2022-12-03T05:25:50.497Z,-2.25
2022-12-03T05:28:17.116Z,-2.20
2022-12-03T05:30:43.696Z,-2.21
2022-12-03T05:33:10.390Z,-2.16
2022-12-03T05:35:36.856Z,-2.17
2022-12-03T05:38:08.524Z,-2.08
2022-12-03T05:40:35.084Z,-2.06
2022-12-03T05:43:01.840Z,-1.95
2022-12-03T05:45:34.045Z,-1.86
2022-12-03T05:48:01.619Z,-1.79
2022-12-03T05:50:30.623Z,-1.77
2022-12-03T05:52:59.168Z,-1.74
2022-12-03T05:55:26.554Z,-1.82
2022-12-03T05:57:53.232Z,-1.87
2022-12-03T06:00:24.705Z,-1.95
2022-12-03T06:02:51.721Z,-2.01
2022-12-03T06:05:21.559Z,-2.03
2022-12-03T06:07:52.273Z,-2.02
2022-12-03T06:10:22.457Z,-2.04
2022-12-03T06:12:49.293Z,-2.04
2022-12-03T06:15:18.251Z,-2.03
2022-12-03T06:17:48.913Z,-1.96
2022-12-03T06:20:18.717Z,-1.91
2022-12-03T06:22:45.789Z,-1.80
2022-12-03T06:25:13.010Z,-1.70
2022-12-03T06:27:39.541Z,-1.64
2022-12-03T06:30:08.034Z,-1.70
2022-12-03T06:32:34.769Z,-1.71
2022-12-03T06:35:01.446Z,-1.71
2022-12-03T06:37:28.061Z,-1.77
2022-12-03T06:39:54.634Z,-1.80
2022-12-03T06:42:21.106Z,-1.80
2022-12-03T06:44:54.604Z,-1.78
2022-12-03T06:47:21.376Z,-1.78
2022-12-03T06:49:47.873Z,-1.74
2022-12-03T06:52:14.588Z,-1.68
2022-12-03T06:54:41.109Z,-1.62
2022-12-03T06:57:07.710Z,-1.59
2022-12-03T06:59:35.995Z,-1.55
2022-12-03T07:02:02.644Z,-1.51
2022-12-03T07:04:29.253Z,-1.48
2022-12-03T07:06:55.735Z,-1.43
2022-12-03T07:09:22.358Z,-1.36
2022-12-03T07:11:48.955Z,-1.27
2022-12-03T07:14:17.245Z,-1.16
2022-12-03T07:16:44.020Z,-1.09
2022-12-03T07:19:11.172Z,-1.03
2022-12-03T07:21:39.579Z,-0.98
2022-12-03T07:24:06.450Z,-0.92
2022-12-03T07:26:32.977Z,-0.95
2022-12-03T07:29:01.270Z,-1.07
2022-12-03T07:31:27.842Z,-1.08
2022-12-03T07:33:54.719Z,-1.09
2022-12-03T07:36:21.373Z,-1.05
2022-12-03T07:38:48.037Z,-0.95
2022-12-03T07:41:14.659Z,-0.97
2022-12-03T07:43:41.272Z,-0.91
2022-12-03T07:46:08.627Z,-0.82
2022-12-03T07:48:35.326Z,-0.77
2022-12-03T07:51:02.129Z,-0.74
2022-12-03T07:53:28.610Z,-0.70
2022-12-03T07:55:55.097Z,-0.68
2022-12-03T07:58:30.115Z,-0.73
2022-12-03T08:00:57.282Z,-0.76
2022-12-03T08:03:24.300Z,-0.79
2022-12-03T08:05:52.535Z,-0.81
2022-12-03T08:08:19.333Z,-0.82
2022-12-03T08:10:49.592Z,-0.82
2022-12-03T08:13:18.356Z,-0.81
2022-12-03T08:15:45.705Z,-0.75
2022-12-03T08:18:24.514Z,-0.72
2022-12-03T08:20:52.894Z,-0.68
2022-12-03T08:23:25.371Z,-0.61
2022-12-03T08:25:52.965Z,-0.53
2022-12-03T08:28:20.711Z,-0.47
2022-12-03T08:31:09.361Z,-0.46
2022-12-03T08:33:37.090Z,-0.41
2022-12-03T08:36:18.866Z,-0.36
2022-12-03T08:38:55.520Z,-0.34
2022-12-03T08:41:43.561Z,-0.31
2022-12-03T08:44:20.333Z,-0.23
2022-12-03T08:46:53.100Z,-0.23
2022-12-03T08:49:21.573Z,-0.24
2022-12-03T08:51:48.968Z,-0.18
2022-12-03T08:54:22.497Z,-0.11
2022-12-03T08:56:48.971Z,-0.04
2022-12-03T08:59:28.742Z,-0.01
2022-12-03T09:01:56.408Z,0.04
2022-12-03T09:04:43.161Z,0.10
2022-12-03T09:07:09.778Z,0.13
2022-12-03T09:09:36.380Z,0.18
2022-12-03T09:12:12.581Z,0.24
2022-12-03T09:14:40.512Z,0.29
2022-12-03T09:17:07.105Z,0.38
2022-12-03T09:19:35.433Z,0.48
2022-12-03T09:22:05.197Z,0.52
2022-12-03T09:24:31.890Z,0.56
2022-12-03T09:26:58.477Z,0.62
2022-12-03T09:29:24.933Z,0.70
2022-12-03T09:31:51.510Z,0.77
2022-12-03T09:34:18.206Z,0.81
2022-12-03T09:36:44.739Z,0.83
2022-12-03T09:39:11.278Z,0.87
2022-12-03T09:41:38.051Z,0.91
2022-12-03T09:44:05.705Z,0.96
2022-12-03T09:46:35.329Z,1.00
2022-12-03T09:49:13.953Z,1.07
2022-12-03T09:51:43.034Z,1.10
2022-12-03T09:54:20.701Z,1.13
2022-12-03T09:56:47.228Z,1.13
2022-12-03T09:59:14.895Z,1.17
2022-12-03T10:01:44.465Z,1.22
2022-12-03T10:04:11.424Z,1.29
2022-12-03T10:06:43.913Z,1.35
2022-12-03T10:09:17.604Z,1.37
2022-12-03T10:11:44.396Z,1.42
2022-12-03T10:14:13.893Z,1.43
2022-12-03T10:16:43.302Z,1.48
2022-12-03T10:19:19.541Z,1.46
2022-12-03T10:21:47.904Z,1.57
2022-12-03T10:24:25.969Z,1.58
2022-12-03T10:26:57.957Z,1.63
2022-12-03T10:29:33.132Z,1.64
2022-12-03T10:32:06.015Z,1.67
2022-12-03T10:34:34.920Z,1.70
2022-12-03T10:37:10.508Z,1.73
2022-12-03T10:40:19.861Z,1.73
2022-12-03T10:42:46.558Z,1.75
2022-12-03T10:45:16.589Z,1.82
2022-12-03T10:47:44.359Z,1.85
2022-12-03T10:50:19.526Z,1.88
2022-12-03T10:52:47.097Z,1.92
2022-12-03T10:55:16.064Z,1.92
2022-12-03T10:57:46.041Z,1.89
2022-12-03T11:00:18.399Z,1.92
2022-12-03T11:02:46.768Z,1.94
2022-12-03T11:05:20.095Z,2.01
2022-12-03T11:07:48.853Z,2.05
2022-12-03T11:10:17.861Z,2.08
2022-12-03T11:13:30.791Z,2.01
2022-12-03T11:15:57.797Z,2.00
2022-12-03T11:18:36.713Z,2.04
2022-12-03T11:21:06.277Z,2.02
2022-12-03T11:24:00.835Z,2.04
2022-12-03T11:26:27.262Z,2.05
2022-12-03T11:28:56.049Z,2.08
2022-12-03T11:31:47.443Z,2.15
2022-12-03T11:34:17.173Z,2.20
2022-12-03T11:37:18.058Z,2.24
2022-12-03T11:39:50.725Z,2.26
2022-12-03T11:42:26.425Z,2.27
2022-12-03T11:45:11.078Z,2.34
2022-12-03T11:47:43.883Z,2.35
2022-12-03T11:50:39.879Z,2.33
2022-12-03T11:53:28.632Z,2.32
2022-12-03T11:56:08.582Z,2.31
2022-12-03T11:58:40.413Z,2.32
2022-12-03T12:01:08.300Z,2.29
2022-12-03T12:03:47.377Z,2.31
2022-12-03T12:06:19.898Z,2.26
2022-12-03T12:08:52.306Z,2.27
2022-12-03T12:11:20.010Z,2.32
2022-12-03T12:13:51.402Z,2.31
2022-12-03T12:16:39.750Z,2.22
2022-12-03T12:19:39.769Z,2.17
2022-12-03T12:22:25.114Z,2.20
2022-12-03T12:24:54.353Z,2.16
2022-12-03T12:27:51.190Z,2.16
2022-12-03T12:30:21.639Z,2.12
2022-12-03T12:32:49.065Z,2.14
2022-12-03T12:35:25.121Z,2.15
2022-12-03T12:38:00.857Z,2.08
2022-12-03T12:40:34.631Z,2.02
2022-12-03T12:43:26.206Z,2.02
2022-12-03T12:45:55.142Z,2.00
2022-12-03T12:48:28.110Z,1.98
2022-12-03T12:51:20.593Z,1.99
2022-12-03T12:53:47.920Z,2.03
2022-12-03T12:56:32.464Z,2.04
2022-12-03T12:59:09.374Z,2.04
2022-12-03T13:01:36.661Z,2.04
2022-12-03T13:04:14.136Z,2.04
2022-12-03T13:06:43.503Z,2.05
2022-12-03T13:09:16.653Z,2.08
2022-12-03T13:11:50.296Z,2.06
2022-12-03T13:14:20.289Z,2.10
2022-12-03T13:16:48.839Z,2.12
2022-12-03T13:19:28.949Z,2.15
2022-12-03T13:22:14.775Z,2.17
2022-12-03T13:24:46.427Z,2.22
2022-12-03T13:27:19.615Z,2.20
2022-12-03T13:29:51.408Z,2.19
2022-12-03T13:32:30.841Z,2.22
2022-12-03T13:35:17.647Z,2.28
2022-12-03T13:37:44.823Z,2.22
2022-12-03T13:43:21.090Z,2.20
2022-12-03T13:45:49.862Z,2.19
2022-12-03T13:48:24.765Z,2.21
2022-12-03T13:50:53.454Z,2.23
2022-12-03T13:53:24.255Z,2.26
2022-12-03T13:55:56.827Z,2.23
2022-12-03T13:58:23.342Z,2.23
2022-12-03T14:00:53.358Z,2.22
2022-12-03T14:03:21.791Z,2.19
2022-12-03T14:05:48.316Z,2.20
2022-12-03T14:08:14.927Z,2.21
2022-12-03T14:10:41.640Z,2.22
2022-12-03T14:13:10.542Z,2.23
2022-12-03T14:15:37.170Z,2.24
2022-12-03T14:18:04.311Z,2.26
2022-12-03T14:20:30.829Z,2.28
2022-12-03T14:22:59.498Z,2.24
2022-12-03T14:25:36.872Z,2.23
2022-12-03T14:28:08.560Z,2.22
2022-12-03T14:30:36.146Z,2.20
2022-12-03T14:33:07.335Z,2.21
2022-12-03T14:35:33.809Z,2.23
2022-12-03T14:38:00.333Z,2.22
2022-12-03T14:40:27.341Z,2.22
2022-12-03T14:42:53.848Z,2.20
2022-12-03T14:45:20.984Z,2.21
2022-12-03T14:47:49.213Z,2.21
2022-12-03T14:50:19.449Z,2.21
2022-12-03T14:52:45.917Z,2.21
2022-12-03T14:55:14.526Z,2.22
2022-12-03T14:57:41.012Z,2.22
2022-12-03T15:00:08.125Z,2.22
2022-12-03T15:02:41.415Z,2.24
2022-12-03T15:05:08.303Z,2.22
2022-12-03T15:07:35.070Z,2.21
2022-12-03T15:10:01.770Z,2.22
2022-12-03T15:12:28.521Z,2.23
2022-12-03T15:14:55.120Z,2.23
2022-12-03T15:17:31.019Z,2.22
2022-12-03T15:19:57.934Z,2.21
2022-12-03T15:22:26.198Z,2.21
2022-12-03T15:24:52.999Z,2.20
2022-12-03T15:27:19.654Z,2.21
2022-12-03T15:29:48.372Z,2.21
2022-12-03T15:32:14.945Z,2.19
2022-12-03T15:34:41.664Z,2.18
2022-12-03T15:37:09.305Z,2.17
2022-12-03T15:39:36.429Z,2.16
2022-12-03T15:42:02.923Z,2.16
2022-12-03T15:44:29.631Z,2.14
2022-12-03T15:46:56.351Z,2.15
2022-12-03T15:49:22.852Z,2.14
2022-12-03T15:51:51.504Z,2.13
2022-12-03T15:54:18.253Z,2.12
2022-12-03T15:56:44.757Z,2.12
2022-12-03T15:59:21.193Z,2.10
2022-12-03T16:01:49.156Z,2.10
2022-12-03T16:04:15.787Z,2.11
2022-12-03T16:06:44.551Z,2.11
2022-12-03T16:09:11.107Z,2.10
2022-12-03T16:11:39.844Z,2.11
2022-12-03T16:14:12.846Z,2.10
2022-12-03T16:16:39.352Z,2.09
2022-12-03T16:19:06.253Z,2.09
2022-12-03T16:21:36.709Z,2.09
2022-12-03T16:24:03.338Z,2.07
2022-12-03T16:26:33.520Z,2.08
2022-12-03T16:29:00.034Z,2.08
2022-12-03T16:31:26.987Z,2.06
2022-12-03T16:33:54.752Z,2.05
2022-12-03T16:36:23.456Z,2.05
2022-12-03T16:38:50.173Z,2.04
2022-12-03T16:41:16.689Z,2.03
2022-12-03T16:43:47.830Z,2.02
2022-12-03T16:46:14.726Z,2.00
2022-12-03T16:48:41.765Z,2.00
2022-12-03T16:51:12.727Z,1.97
2022-12-03T16:53:39.267Z,1.97
2022-12-03T16:56:05.847Z,1.96
2022-12-03T16:58:34.178Z,1.94
2022-12-03T17:01:00.730Z,1.95
2022-12-03T17:03:33.383Z,1.95
2022-12-03T17:06:08.624Z,1.95
2022-12-03T17:08:36.707Z,1.94
2022-12-03T17:11:03.268Z,1.95
2022-12-03T17:13:29.865Z,1.93
2022-12-03T17:15:56.470Z,1.93
2022-12-03T17:18:23.041Z,1.93
2022-12-03T17:20:58.213Z,1.93
2022-12-03T17:23:24.714Z,1.93
2022-12-03T17:25:51.183Z,1.92
2022-12-03T17:28:19.380Z,1.90
2022-12-03T17:30:46.095Z,1.88
2022-12-03T17:33:12.716Z,1.90
2022-12-03T17:35:41.433Z,1.89
2022-12-03T17:38:09.086Z,1.89
2022-12-03T17:40:35.561Z,1.88
2022-12-03T17:43:04.572Z,1.88
2022-12-03T17:45:34.952Z,1.88
2022-12-03T17:48:01.689Z,1.88
2022-12-03T17:50:28.277Z,1.87
2022-12-03T17:52:54.727Z,1.86
2022-12-03T17:55:30.934Z,1.87
2022-12-03T17:58:15.515Z,1.86
2022-12-03T18:00:43.172Z,1.84
2022-12-03T18:03:09.643Z,1.83
2022-12-03T18:05:36.298Z,1.82
2022-12-03T18:08:03.292Z,1.81
2022-12-03T18:10:30.066Z,1.81
2022-12-03T18:13:01.506Z,1.80
2022-12-03T18:15:28.557Z,1.81
2022-12-03T18:17:55.030Z,1.79
2022-12-03T18:20:30.216Z,1.78
2022-12-03T18:23:01.101Z,1.76
2022-12-03T18:25:28.284Z,1.76
2022-12-03T18:28:02.907Z,1.73
2022-12-03T18:30:29.393Z,1.73
2022-12-03T18:32:55.980Z,1.71
2022-12-03T18:35:22.579Z,1.70
2022-12-03T18:37:51.083Z,1.70
2022-12-03T18:40:31.493Z,1.67
2022-12-03T18:42:58.280Z,1.69
2022-12-03T18:48:17.605Z,1.66
2022-12-03T18:50:45.321Z,1.66
2022-12-03T18:53:13.637Z,1.64
2022-12-03T18:55:43.230Z,1.65
2022-12-03T18:58:09.714Z,1.63
2022-12-03T19:00:36.520Z,1.63
2022-12-03T19:03:05.501Z,1.61
2022-12-03T19:05:35.058Z,1.60
2022-12-03T19:08:02.286Z,1.59
2022-12-03T19:10:29.577Z,1.58
2022-12-03T19:12:56.113Z,1.56
2022-12-03T19:15:24.065Z,1.53
2022-12-03T19:17:51.021Z,1.54
2022-12-03T19:20:17.602Z,1.51
2022-12-03T19:22:47.238Z,1.51
2022-12-03T19:25:15.569Z,1.51
2022-12-03T19:27:42.437Z,1.49
2022-12-03T19:30:10.456Z,1.48
2022-12-03T19:32:38.785Z,1.47
2022-12-03T19:35:07.547Z,1.45
2022-12-03T19:37:34.206Z,1.43
2022-12-03T19:40:01.229Z,1.43
2022-12-03T19:42:27.742Z,1.43
2022-12-03T19:44:54.520Z,1.43
2022-12-03T19:47:21.201Z,1.42
2022-12-03T19:49:47.735Z,1.41
2022-12-03T19:52:14.369Z,1.40
2022-12-03T19:54:40.930Z,1.40
2022-12-03T19:57:07.448Z,1.39
2022-12-03T19:59:36.752Z,1.39
2022-12-03T20:02:08.795Z,1.39
2022-12-03T20:04:39.255Z,1.37
2022-12-03T20:07:06.169Z,1.36
2022-12-03T20:09:32.781Z,1.33
2022-12-03T20:11:59.313Z,1.31
2022-12-03T20:14:26.312Z,1.31
2022-12-03T20:16:52.917Z,1.32
2022-12-03T20:19:19.468Z,1.29
2022-12-03T20:21:45.998Z,1.27
2022-12-03T20:24:19.403Z,1.26
2022-12-03T20:26:45.991Z,1.23
2022-12-03T20:29:12.520Z,1.22
2022-12-03T20:31:39.130Z,1.20
2022-12-03T20:34:05.948Z,1.20
2022-12-03T20:36:32.822Z,1.18
2022-12-03T20:39:07.295Z,1.17
2022-12-03T20:41:37.682Z,1.15
2022-12-03T20:44:06.263Z,1.15
2022-12-03T20:46:37.439Z,1.13
2022-12-03T20:49:04.119Z,1.14
2022-12-03T20:51:31.525Z,1.13
2022-12-03T20:54:00.077Z,1.12
2022-12-03T20:56:33.661Z,1.12
2022-12-03T20:59:05.115Z,1.12
2022-12-03T21:01:32.563Z,1.11
2022-12-03T21:03:59.159Z,1.11
2022-12-03T21:06:29.773Z,1.12
2022-12-03T21:08:57.757Z,1.13
2022-12-03T21:11:27.082Z,1.12
2022-12-03T21:13:56.428Z,1.12
2022-12-03T21:16:45.992Z,1.12
2022-12-03T21:19:14.211Z,1.12
2022-12-03T21:21:42.798Z,1.11
2022-12-03T21:24:11.891Z,1.12
2022-12-03T21:26:38.675Z,1.12
2022-12-03T21:29:05.176Z,1.13
2022-12-03T21:31:32.485Z,1.12
2022-12-03T21:34:01.291Z,1.12
2022-12-03T21:36:27.753Z,1.12
2022-12-03T21:38:54.255Z,1.11
2022-12-03T21:41:21.065Z,1.11
2022-12-03T21:43:47.663Z,1.11
2022-12-03T21:47:12.824Z,1.11
2022-12-03T21:49:04.130Z,1.11
2022-12-03T21:51:30.963Z,1.11
2022-12-03T21:53:57.431Z,1.10
2022-12-03T21:56:25.770Z,1.12
2022-12-03T21:58:52.302Z,1.11
2022-12-03T22:01:21.770Z,1.12
2022-12-03T22:03:53.238Z,1.13
2022-12-03T22:06:20.247Z,1.14
2022-12-03T22:08:47.656Z,1.14
2022-12-03T22:11:20.075Z,1.15
2022-12-03T22:13:47.034Z,1.16
2022-12-03T22:16:17.221Z,1.16
2022-12-03T22:18:49.258Z,1.16
2022-12-03T22:21:18.827Z,1.16
2022-12-03T22:23:45.810Z,1.17
2022-12-03T22:26:17.327Z,1.16
2022-12-03T22:28:48.477Z,1.15
2022-12-03T22:31:16.700Z,1.17
2022-12-03T22:33:50.460Z,1.16
2022-12-03T22:36:21.507Z,1.17
2022-12-03T22:38:51.858Z,1.18
2022-12-03T22:41:19.893Z,1.17
2022-12-03T22:43:47.325Z,1.17
2022-12-03T22:46:16.191Z,1.17
2022-12-03T22:48:44.429Z,1.18
2022-12-03T22:51:22.699Z,1.18
2022-12-03T22:53:54.954Z,1.17
2022-12-03T22:56:30.360Z,1.17
2022-12-03T22:58:57.202Z,1.18
2022-12-03T23:01:34.483Z,1.19
2022-12-03T23:04:01.860Z,1.18
2022-12-03T23:06:29.111Z,1.18
2022-12-03T23:08:56.508Z,1.17
2022-12-03T23:11:23.120Z,1.18
2022-12-03T23:13:49.711Z,1.19
2022-12-03T23:16:22.389Z,1.19
2022-12-03T23:18:51.009Z,1.18
2022-12-03T23:21:28.622Z,1.18
2022-12-03T23:23:56.850Z,1.19
2022-12-03T23:26:23.344Z,1.18
2022-12-03T23:28:49.836Z,1.18
2022-12-03T23:31:24.811Z,1.19
2022-12-03T23:33:52.060Z,1.19
2022-12-03T23:36:23.044Z,1.20
2022-12-03T23:38:52.826Z,1.20
2022-12-03T23:41:21.812Z,1.20
2022-12-03T23:43:48.592Z,1.19
2022-12-03T23:46:21.487Z,1.19
2022-12-03T23:48:51.908Z,1.19
2022-12-03T23:51:21.783Z,1.19
2022-12-03T23:53:50.565Z,1.19
2022-12-03T23:56:19.932Z,1.19
2022-12-03T23:58:46.893Z,1.21
